sensor_id;sensor_type;location;lat;lon;timestamp;P1;durP1;ratioP1;P2;durP2;ratioP2
79229;SDS011;68663;49.122;17.544;2023-05-20T00:00:46;4.97;;;4.55;;
79229;SDS011;68663;49.122;17.544;2023-05-20T00:03:14;5.10;;;4.60;;
79229;SDS011;68663;49.122;17.544;2023-05-20T00:05:40;5.38;;;4.40;;
79229;SDS011;68663;49.122;17.544;2023-05-20T00:08:05;5.43;;;4.93;;
79229;SDS011;68663;49.122;17.544;2023-05-20T00:10:33;4.85;;;4.32;;
79229;SDS011;68663;49.122;17.544;2023-05-20T00:12:59;5.90;;;4.97;;
79229;SDS011;68663;49.122;17.544;2023-05-20T00:15:25;5.22;;;4.70;;
79229;SDS011;68663;49.122;17.544;2023-05-20T00:17:51;5.13;;;4.13;;
79229;SDS011;68663;49.122;17.544;2023-05-20T00:20:16;6.90;;;4.60;;
79229;SDS011;68663;49.122;17.544;2023-05-20T00:22:42;5.10;;;4.60;;
79229;SDS011;68663;49.122;17.544;2023-05-20T00:25:07;5.53;;;4.47;;
79229;SDS011;68663;49.122;17.544;2023-05-20T00:27:34;4.45;;;4.05;;
79229;SDS011;68663;49.122;17.544;2023-05-20T00:29:59;5.10;;;4.60;;
79229;SDS011;68663;49.122;17.544;2023-05-20T00:32:24;5.10;;;4.57;;
79229;SDS011;68663;49.122;17.544;2023-05-20T00:34:59;5.10;;;4.15;;
79229;SDS011;68663;49.122;17.544;2023-05-20T00:37:25;4.75;;;4.28;;
79229;SDS011;68663;49.122;17.544;2023-05-20T00:39:51;5.05;;;4.43;;
79229;SDS011;68663;49.122;17.544;2023-05-20T00:42:23;4.40;;;4.00;;
79229;SDS011;68663;49.122;17.544;2023-05-20T00:44:49;4.70;;;4.25;;
79229;SDS011;68663;49.122;17.544;2023-05-20T00:47:16;5.20;;;4.70;;
79229;SDS011;68663;49.122;17.544;2023-05-20T00:49:45;5.00;;;4.50;;
79229;SDS011;68663;49.122;17.544;2023-05-20T00:52:14;6.18;;;4.63;;
79229;SDS011;68663;49.122;17.544;2023-05-20T00:54:40;5.18;;;4.68;;
79229;SDS011;68663;49.122;17.544;2023-05-20T00:57:06;4.63;;;4.18;;
79229;SDS011;68663;49.122;17.544;2023-05-20T00:59:33;4.63;;;4.05;;
79229;SDS011;68663;49.122;17.544;2023-05-20T01:01:59;4.80;;;4.22;;
79229;SDS011;68663;49.122;17.544;2023-05-20T01:04:26;4.88;;;4.15;;
79229;SDS011;68663;49.122;17.544;2023-05-20T01:06:51;4.90;;;4.30;;
79229;SDS011;68663;49.122;17.544;2023-05-20T01:09:17;4.38;;;3.95;;
79229;SDS011;68663;49.122;17.544;2023-05-20T01:11:54;6.15;;;3.90;;
79229;SDS011;68663;49.122;17.544;2023-05-20T01:14:24;5.63;;;4.25;;
79229;SDS011;68663;49.122;17.544;2023-05-20T01:16:52;4.55;;;4.15;;
79229;SDS011;68663;49.122;17.544;2023-05-20T01:19:29;5.28;;;3.97;;
79229;SDS011;68663;49.122;17.544;2023-05-20T01:21:59;4.53;;;4.13;;
79229;SDS011;68663;49.122;17.544;2023-05-20T01:24:30;4.53;;;3.95;;
79229;SDS011;68663;49.122;17.544;2023-05-20T01:26:55;4.03;;;3.63;;
79229;SDS011;68663;49.122;17.544;2023-05-20T01:29:22;4.97;;;4.47;;
79229;SDS011;68663;49.122;17.544;2023-05-20T01:31:48;4.30;;;3.85;;
79229;SDS011;68663;49.122;17.544;2023-05-20T01:34:16;5.28;;;3.85;;
79229;SDS011;68663;49.122;17.544;2023-05-20T01:36:42;4.95;;;3.60;;
79229;SDS011;68663;49.122;17.544;2023-05-20T01:39:10;4.97;;;4.43;;
79229;SDS011;68663;49.122;17.544;2023-05-20T01:41:36;4.78;;;4.13;;
79229;SDS011;68663;49.122;17.544;2023-05-20T01:44:02;5.30;;;4.10;;
79229;SDS011;68663;49.122;17.544;2023-05-20T01:46:31;4.43;;;4.03;;
79229;SDS011;68663;49.122;17.544;2023-05-20T01:48:57;4.40;;;4.00;;
79229;SDS011;68663;49.122;17.544;2023-05-20T01:51:22;5.17;;;4.27;;
79229;SDS011;68663;49.122;17.544;2023-05-20T01:53:48;4.43;;;4.03;;
79229;SDS011;68663;49.122;17.544;2023-05-20T01:56:13;4.82;;;4.38;;
79229;SDS011;68663;49.122;17.544;2023-05-20T01:58:38;4.60;;;4.20;;
79229;SDS011;68663;49.122;17.544;2023-05-20T02:03:41;4.13;;;3.72;;
79229;SDS011;68663;49.122;17.544;2023-05-20T02:06:06;4.07;;;3.67;;
79229;SDS011;68663;49.122;17.544;2023-05-20T02:08:32;4.30;;;3.90;;
79229;SDS011;68663;49.122;17.544;2023-05-20T02:10:57;4.57;;;3.93;;
79229;SDS011;68663;49.122;17.544;2023-05-20T02:13:22;4.00;;;3.50;;
79229;SDS011;68663;49.122;17.544;2023-05-20T02:15:48;4.45;;;4.05;;
79229;SDS011;68663;49.122;17.544;2023-05-20T02:18:15;5.13;;;4.35;;
79229;SDS011;68663;49.122;17.544;2023-05-20T02:20:42;4.18;;;3.63;;
79229;SDS011;68663;49.122;17.544;2023-05-20T02:23:08;3.88;;;3.47;;
79229;SDS011;68663;49.122;17.544;2023-05-20T02:25:33;4.88;;;4.07;;
79229;SDS011;68663;49.122;17.544;2023-05-20T02:27:58;3.92;;;3.45;;
79229;SDS011;68663;49.122;17.544;2023-05-20T02:30:24;4.78;;;4.22;;
79229;SDS011;68663;49.122;17.544;2023-05-20T02:32:50;4.25;;;3.85;;
79229;SDS011;68663;49.122;17.544;2023-05-20T02:35:16;4.20;;;3.80;;
79229;SDS011;68663;49.122;17.544;2023-05-20T02:37:41;3.58;;;3.28;;
79229;SDS011;68663;49.122;17.544;2023-05-20T02:40:09;4.50;;;3.88;;
79229;SDS011;68663;49.122;17.544;2023-05-20T02:42:34;4.68;;;4.05;;
79229;SDS011;68663;49.122;17.544;2023-05-20T02:45:00;4.05;;;3.65;;
79229;SDS011;68663;49.122;17.544;2023-05-20T02:47:25;4.85;;;4.03;;
79229;SDS011;68663;49.122;17.544;2023-05-20T02:49:51;4.47;;;4.07;;
79229;SDS011;68663;49.122;17.544;2023-05-20T02:52:16;4.43;;;3.85;;
79229;SDS011;68663;49.122;17.544;2023-05-20T02:54:42;4.28;;;3.75;;
79229;SDS011;68663;49.122;17.544;2023-05-20T02:57:07;3.97;;;3.60;;
79229;SDS011;68663;49.122;17.544;2023-05-20T02:59:33;4.53;;;3.50;;
79229;SDS011;68663;49.122;17.544;2023-05-20T03:01:58;4.00;;;3.43;;
79229;SDS011;68663;49.122;17.544;2023-05-20T03:04:23;3.80;;;3.40;;
79229;SDS011;68663;49.122;17.544;2023-05-20T03:06:52;4.18;;;3.78;;
79229;SDS011;68663;49.122;17.544;2023-05-20T03:09:17;4.00;;;3.60;;
79229;SDS011;68663;49.122;17.544;2023-05-20T03:11:43;4.25;;;3.60;;
79229;SDS011;68663;49.122;17.544;2023-05-20T03:14:10;4.00;;;3.60;;
79229;SDS011;68663;49.122;17.544;2023-05-20T03:16:35;4.30;;;3.90;;
79229;SDS011;68663;49.122;17.544;2023-05-20T03:19:00;4.10;;;3.63;;
79229;SDS011;68663;49.122;17.544;2023-05-20T03:21:26;4.32;;;3.70;;
79229;SDS011;68663;49.122;17.544;2023-05-20T03:23:52;4.03;;;3.63;;
79229;SDS011;68663;49.122;17.544;2023-05-20T03:26:17;3.42;;;3.13;;
79229;SDS011;68663;49.122;17.544;2023-05-20T03:28:43;4.22;;;3.78;;
79229;SDS011;68663;49.122;17.544;2023-05-20T03:31:08;3.73;;;3.20;;
79229;SDS011;68663;49.122;17.544;2023-05-20T03:33:34;4.20;;;3.77;;
79229;SDS011;68663;49.122;17.544;2023-05-20T03:35:59;3.97;;;3.47;;
79229;SDS011;68663;49.122;17.544;2023-05-20T03:38:25;4.32;;;3.50;;
79229;SDS011;68663;49.122;17.544;2023-05-20T03:40:51;3.70;;;3.40;;
79229;SDS011;68663;49.122;17.544;2023-05-20T03:43:16;4.03;;;3.63;;
79229;SDS011;68663;49.122;17.544;2023-05-20T03:45:42;3.78;;;3.38;;
79229;SDS011;68663;49.122;17.544;2023-05-20T03:48:07;3.83;;;3.30;;
79229;SDS011;68663;49.122;17.544;2023-05-20T03:50:32;3.90;;;3.53;;
79229;SDS011;68663;49.122;17.544;2023-05-20T03:52:58;3.70;;;3.40;;
79229;SDS011;68663;49.122;17.544;2023-05-20T03:55:23;3.43;;;3.13;;
79229;SDS011;68663;49.122;17.544;2023-05-20T03:57:49;3.80;;;3.40;;
79229;SDS011;68663;49.122;17.544;2023-05-20T04:00:15;3.90;;;3.42;;
79229;SDS011;68663;49.122;17.544;2023-05-20T04:02:41;3.78;;;3.42;;
79229;SDS011;68663;49.122;17.544;2023-05-20T04:05:07;3.70;;;3.30;;
79229;SDS011;68663;49.122;17.544;2023-05-20T04:07:34;3.53;;;3.08;;
79229;SDS011;68663;49.122;17.544;2023-05-20T04:10:00;3.63;;;3.28;;
79229;SDS011;68663;49.122;17.544;2023-05-20T04:12:26;3.78;;;3.35;;
79229;SDS011;68663;49.122;17.544;2023-05-20T04:14:59;3.88;;;3.42;;
79229;SDS011;68663;49.122;17.544;2023-05-20T04:17:28;3.90;;;3.33;;
79229;SDS011;68663;49.122;17.544;2023-05-20T04:19:54;4.47;;;3.53;;
79229;SDS011;68663;49.122;17.544;2023-05-20T04:22:21;3.97;;;3.55;;
79229;SDS011;68663;49.122;17.544;2023-05-20T04:24:47;4.13;;;3.35;;
79229;SDS011;68663;49.122;17.544;2023-05-20T04:27:12;3.90;;;3.40;;
79229;SDS011;68663;49.122;17.544;2023-05-20T04:29:38;3.75;;;3.20;;
79229;SDS011;68663;49.122;17.544;2023-05-20T04:32:05;3.80;;;3.25;;
79229;SDS011;68663;49.122;17.544;2023-05-20T04:34:34;3.97;;;3.13;;
79229;SDS011;68663;49.122;17.544;2023-05-20T04:37:01;3.97;;;3.38;;
79229;SDS011;68663;49.122;17.544;2023-05-20T04:39:27;3.40;;;3.10;;
79229;SDS011;68663;49.122;17.544;2023-05-20T04:41:52;3.55;;;3.25;;
79229;SDS011;68663;49.122;17.544;2023-05-20T04:44:19;3.88;;;3.28;;
79229;SDS011;68663;49.122;17.544;2023-05-20T04:46:44;3.65;;;3.10;;
79229;SDS011;68663;49.122;17.544;2023-05-20T04:49:10;4.05;;;3.08;;
79229;SDS011;68663;49.122;17.544;2023-05-20T04:51:35;3.40;;;2.92;;
79229;SDS011;68663;49.122;17.544;2023-05-20T04:54:01;3.63;;;3.10;;
79229;SDS011;68663;49.122;17.544;2023-05-20T04:56:26;3.92;;;2.97;;
79229;SDS011;68663;49.122;17.544;2023-05-20T04:58:52;3.35;;;3.05;;
79229;SDS011;68663;49.122;17.544;2023-05-20T05:01:18;3.03;;;2.72;;
79229;SDS011;68663;49.122;17.544;2023-05-20T05:03:44;3.90;;;2.80;;
79229;SDS011;68663;49.122;17.544;2023-05-20T05:06:09;3.30;;;3.00;;
79229;SDS011;68663;49.122;17.544;2023-05-20T05:08:34;3.60;;;3.15;;
79229;SDS011;68663;49.122;17.544;2023-05-20T05:11:00;3.60;;;3.30;;
79229;SDS011;68663;49.122;17.544;2023-05-20T05:13:25;3.97;;;2.97;;
79229;SDS011;68663;49.122;17.544;2023-05-20T05:15:57;4.68;;;2.92;;
79229;SDS011;68663;49.122;17.544;2023-05-20T05:18:23;3.20;;;2.80;;
79229;SDS011;68663;49.122;17.544;2023-05-20T05:20:49;4.90;;;2.95;;
79229;SDS011;68663;49.122;17.544;2023-05-20T05:23:14;3.40;;;3.07;;
79229;SDS011;68663;49.122;17.544;2023-05-20T05:25:39;4.53;;;2.80;;
79229;SDS011;68663;49.122;17.544;2023-05-20T05:28:05;5.10;;;2.75;;
79229;SDS011;68663;49.122;17.544;2023-05-20T05:30:31;3.17;;;2.80;;
79229;SDS011;68663;49.122;17.544;2023-05-20T05:32:56;3.63;;;3.25;;
79229;SDS011;68663;49.122;17.544;2023-05-20T05:35:21;3.63;;;3.03;;
79229;SDS011;68663;49.122;17.544;2023-05-20T05:37:47;3.60;;;2.92;;
79229;SDS011;68663;49.122;17.544;2023-05-20T05:40:13;4.20;;;3.30;;
79229;SDS011;68663;49.122;17.544;2023-05-20T05:42:38;3.10;;;2.58;;
79229;SDS011;68663;49.122;17.544;2023-05-20T05:45:03;2.97;;;2.67;;
79229;SDS011;68663;49.122;17.544;2023-05-20T05:47:30;5.10;;;2.90;;
79229;SDS011;68663;49.122;17.544;2023-05-20T05:49:56;3.25;;;2.95;;
79229;SDS011;68663;49.122;17.544;2023-05-20T05:52:23;3.83;;;3.05;;
79229;SDS011;68663;49.122;17.544;2023-05-20T05:54:48;5.83;;;3.03;;
79229;SDS011;68663;49.122;17.544;2023-05-20T05:57:14;9.25;;;2.83;;
79229;SDS011;68663;49.122;17.544;2023-05-20T05:59:39;4.85;;;2.72;;
79229;SDS011;68663;49.122;17.544;2023-05-20T06:02:04;5.25;;;3.08;;
79229;SDS011;68663;49.122;17.544;2023-05-20T06:04:30;3.83;;;3.08;;
79229;SDS011;68663;49.122;17.544;2023-05-20T06:06:55;5.05;;;3.30;;
79229;SDS011;68663;49.122;17.544;2023-05-20T06:09:21;3.10;;;2.55;;
79229;SDS011;68663;49.122;17.544;2023-05-20T06:11:46;6.07;;;2.65;;
79229;SDS011;68663;49.122;17.544;2023-05-20T06:14:12;4.93;;;3.03;;
79229;SDS011;68663;49.122;17.544;2023-05-20T06:16:37;4.60;;;2.90;;
79229;SDS011;68663;49.122;17.544;2023-05-20T06:19:03;4.20;;;2.75;;
79229;SDS011;68663;49.122;17.544;2023-05-20T06:21:29;3.35;;;2.70;;
79229;SDS011;68663;49.122;17.544;2023-05-20T06:23:55;3.92;;;2.85;;
79229;SDS011;68663;49.122;17.544;2023-05-20T06:26:21;6.03;;;2.80;;
79229;SDS011;68663;49.122;17.544;2023-05-20T06:28:46;5.18;;;2.60;;
79229;SDS011;68663;49.122;17.544;2023-05-20T06:31:12;3.10;;;2.50;;
79229;SDS011;68663;49.122;17.544;2023-05-20T06:33:37;4.93;;;2.92;;
79229;SDS011;68663;49.122;17.544;2023-05-20T06:36:03;4.05;;;3.00;;
79229;SDS011;68663;49.122;17.544;2023-05-20T06:38:29;3.53;;;2.75;;
79229;SDS011;68663;49.122;17.544;2023-05-20T06:40:55;3.28;;;2.67;;
79229;SDS011;68663;49.122;17.544;2023-05-20T06:43:20;7.53;;;3.00;;
79229;SDS011;68663;49.122;17.544;2023-05-20T06:45:46;8.27;;;3.55;;
79229;SDS011;68663;49.122;17.544;2023-05-20T06:48:11;8.07;;;3.83;;
79229;SDS011;68663;49.122;17.544;2023-05-20T06:50:37;7.50;;;3.60;;
79229;SDS011;68663;49.122;17.544;2023-05-20T06:53:02;9.20;;;3.30;;
79229;SDS011;68663;49.122;17.544;2023-05-20T06:55:28;5.93;;;3.50;;
79229;SDS011;68663;49.122;17.544;2023-05-20T06:57:54;7.03;;;4.03;;
79229;SDS011;68663;49.122;17.544;2023-05-20T07:00:20;5.82;;;3.60;;
79229;SDS011;68663;49.122;17.544;2023-05-20T07:02:45;6.90;;;3.55;;
79229;SDS011;68663;49.122;17.544;2023-05-20T07:05:11;6.15;;;3.70;;
79229;SDS011;68663;49.122;17.544;2023-05-20T07:07:36;5.60;;;3.88;;
79229;SDS011;68663;49.122;17.544;2023-05-20T07:10:02;4.75;;;3.58;;
79229;SDS011;68663;49.122;17.544;2023-05-20T07:12:29;5.88;;;3.80;;
79229;SDS011;68663;49.122;17.544;2023-05-20T07:17:23;9.37;;;3.90;;
79229;SDS011;68663;49.122;17.544;2023-05-20T07:19:49;6.60;;;4.38;;
79229;SDS011;68663;49.122;17.544;2023-05-20T07:22:15;9.57;;;6.75;;
79229;SDS011;68663;49.122;17.544;2023-05-20T07:24:40;11.23;;;7.18;;
79229;SDS011;68663;49.122;17.544;2023-05-20T07:27:06;9.30;;;7.28;;
79229;SDS011;68663;49.122;17.544;2023-05-20T07:29:33;15.73;;;7.90;;
79229;SDS011;68663;49.122;17.544;2023-05-20T07:31:59;11.23;;;8.07;;
79229;SDS011;68663;49.122;17.544;2023-05-20T07:34:25;15.05;;;11.88;;
79229;SDS011;68663;49.122;17.544;2023-05-20T07:36:50;17.25;;;12.80;;
79229;SDS011;68663;49.122;17.544;2023-05-20T07:39:17;15.63;;;12.07;;
79229;SDS011;68663;49.122;17.544;2023-05-20T07:41:42;21.20;;;13.50;;
79229;SDS011;68663;49.122;17.544;2023-05-20T07:44:08;14.17;;;11.70;;
79229;SDS011;68663;49.122;17.544;2023-05-20T07:46:35;18.08;;;12.77;;
79229;SDS011;68663;49.122;17.544;2023-05-20T07:49:02;22.00;;;13.48;;
79229;SDS011;68663;49.122;17.544;2023-05-20T07:51:28;19.00;;;14.00;;
79229;SDS011;68663;49.122;17.544;2023-05-20T07:53:53;21.70;;;14.98;;
79229;SDS011;68663;49.122;17.544;2023-05-20T07:56:19;20.50;;;14.88;;
79229;SDS011;68663;49.122;17.544;2023-05-20T07:58:50;18.58;;;14.13;;
79229;SDS011;68663;49.122;17.544;2023-05-20T08:01:19;19.23;;;15.35;;
79229;SDS011;68663;49.122;17.544;2023-05-20T08:03:45;19.52;;;14.80;;
79229;SDS011;68663;49.122;17.544;2023-05-20T08:06:10;19.80;;;14.98;;
79229;SDS011;68663;49.122;17.544;2023-05-20T08:08:36;19.38;;;15.52;;
79229;SDS011;68663;49.122;17.544;2023-05-20T08:11:01;18.15;;;14.73;;
79229;SDS011;68663;49.122;17.544;2023-05-20T08:13:28;16.95;;;14.52;;
79229;SDS011;68663;49.122;17.544;2023-05-20T08:15:53;19.38;;;14.23;;
79229;SDS011;68663;49.122;17.544;2023-05-20T08:18:18;16.63;;;13.02;;
79229;SDS011;68663;49.122;17.544;2023-05-20T08:20:44;15.00;;;13.40;;
79229;SDS011;68663;49.122;17.544;2023-05-20T08:23:09;18.42;;;14.60;;
79229;SDS011;68663;49.122;17.544;2023-05-20T08:25:35;23.15;;;14.60;;
79229;SDS011;68663;49.122;17.544;2023-05-20T08:28:02;26.75;;;15.35;;
79229;SDS011;68663;49.122;17.544;2023-05-20T08:30:29;19.88;;;16.52;;
79229;SDS011;68663;49.122;17.544;2023-05-20T08:32:55;24.15;;;15.63;;
79229;SDS011;68663;49.122;17.544;2023-05-20T08:35:21;22.17;;;15.63;;
79229;SDS011;68663;49.122;17.544;2023-05-20T08:37:47;23.10;;;15.57;;
79229;SDS011;68663;49.122;17.544;2023-05-20T08:40:12;21.08;;;15.40;;
79229;SDS011;68663;49.122;17.544;2023-05-20T08:42:42;19.33;;;15.98;;
79229;SDS011;68663;49.122;17.544;2023-05-20T08:45:09;20.13;;;15.68;;
79229;SDS011;68663;49.122;17.544;2023-05-20T08:47:37;22.73;;;16.95;;
79229;SDS011;68663;49.122;17.544;2023-05-20T08:50:07;21.67;;;15.52;;
79229;SDS011;68663;49.122;17.544;2023-05-20T08:52:34;27.33;;;17.58;;
79229;SDS011;68663;49.122;17.544;2023-05-20T08:57:29;28.23;;;17.63;;
79229;SDS011;68663;49.122;17.544;2023-05-20T08:59:57;23.85;;;18.50;;
79229;SDS011;68663;49.122;17.544;2023-05-20T09:02:24;25.98;;;17.20;;
79229;SDS011;68663;49.122;17.544;2023-05-20T09:04:49;22.42;;;17.60;;
79229;SDS011;68663;49.122;17.544;2023-05-20T09:07:28;22.63;;;17.42;;
79229;SDS011;68663;49.122;17.544;2023-05-20T09:09:53;21.98;;;16.45;;
79229;SDS011;68663;49.122;17.544;2023-05-20T09:12:19;23.90;;;17.75;;
79229;SDS011;68663;49.122;17.544;2023-05-20T09:14:46;25.55;;;18.58;;
79229;SDS011;68663;49.122;17.544;2023-05-20T09:17:11;25.50;;;19.08;;
79229;SDS011;68663;49.122;17.544;2023-05-20T09:19:37;24.75;;;18.20;;
79229;SDS011;68663;49.122;17.544;2023-05-20T09:22:03;25.80;;;19.65;;
79229;SDS011;68663;49.122;17.544;2023-05-20T09:24:29;22.45;;;17.17;;
79229;SDS011;68663;49.122;17.544;2023-05-20T09:26:54;29.63;;;18.88;;
79229;SDS011;68663;49.122;17.544;2023-05-20T09:29:20;26.48;;;18.10;;
79229;SDS011;68663;49.122;17.544;2023-05-20T09:31:46;26.15;;;19.85;;
79229;SDS011;68663;49.122;17.544;2023-05-20T09:34:12;24.73;;;19.20;;
79229;SDS011;68663;49.122;17.544;2023-05-20T09:36:38;23.55;;;18.98;;
79229;SDS011;68663;49.122;17.544;2023-05-20T09:39:05;26.35;;;19.65;;
79229;SDS011;68663;49.122;17.544;2023-05-20T09:41:54;26.00;;;20.23;;
79229;SDS011;68663;49.122;17.544;2023-05-20T09:44:21;25.13;;;20.60;;
79229;SDS011;68663;49.122;17.544;2023-05-20T09:46:47;25.60;;;19.08;;
79229;SDS011;68663;49.122;17.544;2023-05-20T09:49:15;25.77;;;19.05;;
79229;SDS011;68663;49.122;17.544;2023-05-20T09:51:41;24.92;;;18.65;;
79229;SDS011;68663;49.122;17.544;2023-05-20T09:54:08;25.05;;;19.90;;
79229;SDS011;68663;49.122;17.544;2023-05-20T09:56:36;28.95;;;20.88;;
79229;SDS011;68663;49.122;17.544;2023-05-20T09:59:04;32.10;;;23.23;;
79229;SDS011;68663;49.122;17.544;2023-05-20T10:01:29;28.38;;;22.35;;
79229;SDS011;68663;49.122;17.544;2023-05-20T10:03:55;30.75;;;23.50;;
79229;SDS011;68663;49.122;17.544;2023-05-20T10:06:27;35.55;;;26.85;;
79229;SDS011;68663;49.122;17.544;2023-05-20T10:11:49;35.97;;;25.60;;
79229;SDS011;68663;49.122;17.544;2023-05-20T10:19:49;33.20;;;26.70;;
79229;SDS011;68663;49.122;17.544;2023-05-20T10:22:27;38.88;;;27.20;;
79229;SDS011;68663;49.122;17.544;2023-05-20T10:24:59;37.83;;;28.48;;
79229;SDS011;68663;49.122;17.544;2023-05-20T10:27:43;42.55;;;27.05;;
79229;SDS011;68663;49.122;17.544;2023-05-20T10:30:20;97.88;;;79.78;;
79229;SDS011;68663;49.122;17.544;2023-05-20T10:32:56;72.57;;;63.30;;
79229;SDS011;68663;49.122;17.544;2023-05-20T10:35:26;74.88;;;60.53;;
79229;SDS011;68663;49.122;17.544;2023-05-20T10:37:53;68.47;;;56.70;;
79229;SDS011;68663;49.122;17.544;2023-05-20T10:40:20;61.15;;;51.55;;
79229;SDS011;68663;49.122;17.544;2023-05-20T10:42:47;57.58;;;49.00;;
79229;SDS011;68663;49.122;17.544;2023-05-20T10:45:27;52.38;;;41.67;;
79229;SDS011;68663;49.122;17.544;2023-05-20T10:47:54;49.67;;;40.70;;
79229;SDS011;68663;49.122;17.544;2023-05-20T10:50:33;50.88;;;41.35;;
79229;SDS011;68663;49.122;17.544;2023-05-20T10:53:03;46.30;;;39.58;;
79229;SDS011;68663;49.122;17.544;2023-05-20T10:55:36;41.47;;;33.20;;
79229;SDS011;68663;49.122;17.544;2023-05-20T10:58:03;39.72;;;32.60;;
79229;SDS011;68663;49.122;17.544;2023-05-20T11:00:30;41.42;;;31.67;;
79229;SDS011;68663;49.122;17.544;2023-05-20T11:02:56;37.72;;;29.80;;
79229;SDS011;68663;49.122;17.544;2023-05-20T11:05:22;37.90;;;28.55;;
79229;SDS011;68663;49.122;17.544;2023-05-20T11:07:48;35.50;;;29.48;;
79229;SDS011;68663;49.122;17.544;2023-05-20T11:10:13;32.45;;;27.63;;
79229;SDS011;68663;49.122;17.544;2023-05-20T11:12:39;34.77;;;26.33;;
79229;SDS011;68663;49.122;17.544;2023-05-20T11:15:04;36.67;;;26.63;;
79229;SDS011;68663;49.122;17.544;2023-05-20T11:17:30;30.25;;;24.30;;
79229;SDS011;68663;49.122;17.544;2023-05-20T11:19:56;30.92;;;25.65;;
79229;SDS011;68663;49.122;17.544;2023-05-20T11:22:24;31.88;;;24.23;;
79229;SDS011;68663;49.122;17.544;2023-05-20T11:24:50;29.17;;;24.05;;
79229;SDS011;68663;49.122;17.544;2023-05-20T11:27:15;30.27;;;26.13;;
79229;SDS011;68663;49.122;17.544;2023-05-20T11:29:41;34.47;;;28.38;;
79229;SDS011;68663;49.122;17.544;2023-05-20T11:32:06;32.13;;;25.75;;
79229;SDS011;68663;49.122;17.544;2023-05-20T11:34:35;29.30;;;24.90;;
79229;SDS011;68663;49.122;17.544;2023-05-20T11:37:06;32.40;;;26.08;;
79229;SDS011;68663;49.122;17.544;2023-05-20T11:39:33;29.52;;;24.92;;
79229;SDS011;68663;49.122;17.544;2023-05-20T11:41:58;30.27;;;25.43;;
79229;SDS011;68663;49.122;17.544;2023-05-20T11:44:24;28.13;;;23.73;;
79229;SDS011;68663;49.122;17.544;2023-05-20T11:46:50;30.42;;;23.88;;
79229;SDS011;68663;49.122;17.544;2023-05-20T11:49:15;30.08;;;25.00;;
79229;SDS011;68663;49.122;17.544;2023-05-20T11:51:41;30.15;;;23.33;;
79229;SDS011;68663;49.122;17.544;2023-05-20T11:54:08;32.47;;;25.30;;
79229;SDS011;68663;49.122;17.544;2023-05-20T11:56:37;30.98;;;25.42;;
79229;SDS011;68663;49.122;17.544;2023-05-20T11:59:05;30.27;;;24.50;;
79229;SDS011;68663;49.122;17.544;2023-05-20T12:01:36;26.75;;;23.33;;
79229;SDS011;68663;49.122;17.544;2023-05-20T12:04:07;23.83;;;21.10;;
79229;SDS011;68663;49.122;17.544;2023-05-20T12:06:32;26.10;;;22.40;;
79229;SDS011;68663;49.122;17.544;2023-05-20T12:09:00;27.73;;;23.33;;
79229;SDS011;68663;49.122;17.544;2023-05-20T12:11:33;25.92;;;21.65;;
79229;SDS011;68663;49.122;17.544;2023-05-20T12:13:59;26.15;;;21.95;;
79229;SDS011;68663;49.122;17.544;2023-05-20T12:16:25;25.05;;;20.77;;
79229;SDS011;68663;49.122;17.544;2023-05-20T12:18:51;21.73;;;19.33;;
79229;SDS011;68663;49.122;17.544;2023-05-20T12:21:16;23.63;;;19.93;;
79229;SDS011;68663;49.122;17.544;2023-05-20T12:23:41;23.98;;;20.05;;
79229;SDS011;68663;49.122;17.544;2023-05-20T12:26:07;23.63;;;21.03;;
79229;SDS011;68663;49.122;17.544;2023-05-20T12:28:32;22.67;;;20.13;;
79229;SDS011;68663;49.122;17.544;2023-05-20T12:30:57;26.07;;;20.80;;
79229;SDS011;68663;49.122;17.544;2023-05-20T12:33:23;22.25;;;19.85;;
79229;SDS011;68663;49.122;17.544;2023-05-20T12:35:48;20.77;;;18.55;;
79229;SDS011;68663;49.122;17.544;2023-05-20T12:38:14;22.08;;;19.02;;
79229;SDS011;68663;49.122;17.544;2023-05-20T12:40:39;20.98;;;18.05;;
79229;SDS011;68663;49.122;17.544;2023-05-20T12:43:04;24.75;;;17.83;;
79229;SDS011;68663;49.122;17.544;2023-05-20T12:45:30;23.38;;;18.25;;
79229;SDS011;68663;49.122;17.544;2023-05-20T12:47:55;19.65;;;15.85;;
79229;SDS011;68663;49.122;17.544;2023-05-20T12:50:22;19.77;;;17.35;;
79229;SDS011;68663;49.122;17.544;2023-05-20T12:52:48;21.40;;;17.85;;
79229;SDS011;68663;49.122;17.544;2023-05-20T12:55:13;17.60;;;15.73;;
79229;SDS011;68663;49.122;17.544;2023-05-20T12:57:40;18.25;;;15.85;;
79229;SDS011;68663;49.122;17.544;2023-05-20T13:00:09;18.98;;;16.98;;
79229;SDS011;68663;49.122;17.544;2023-05-20T13:02:38;17.83;;;16.00;;
79229;SDS011;68663;49.122;17.544;2023-05-20T13:05:06;18.73;;;16.65;;
79229;SDS011;68663;49.122;17.544;2023-05-20T13:07:35;17.52;;;15.73;;
79229;SDS011;68663;49.122;17.544;2023-05-20T13:10:02;20.23;;;16.90;;
79229;SDS011;68663;49.122;17.544;2023-05-20T13:12:28;20.10;;;16.83;;
79229;SDS011;68663;49.122;17.544;2023-05-20T13:14:55;19.42;;;17.02;;
79229;SDS011;68663;49.122;17.544;2023-05-20T13:17:21;20.50;;;18.50;;
79229;SDS011;68663;49.122;17.544;2023-05-20T13:19:46;17.53;;;15.67;;
79229;SDS011;68663;49.122;17.544;2023-05-20T13:22:12;17.83;;;15.93;;
79229;SDS011;68663;49.122;17.544;2023-05-20T13:24:39;19.58;;;17.48;;
79229;SDS011;68663;49.122;17.544;2023-05-20T13:27:06;19.67;;;17.60;;
79229;SDS011;68663;49.122;17.544;2023-05-20T13:29:33;19.23;;;17.23;;
79229;SDS011;68663;49.122;17.544;2023-05-20T13:32:00;20.15;;;17.52;;
79229;SDS011;68663;49.122;17.544;2023-05-20T13:34:26;19.13;;;16.90;;
79229;SDS011;68663;49.122;17.544;2023-05-20T13:36:53;19.48;;;17.50;;
79229;SDS011;68663;49.122;17.544;2023-05-20T13:39:20;22.48;;;18.58;;
79229;SDS011;68663;49.122;17.544;2023-05-20T13:41:47;20.00;;;17.73;;
79229;SDS011;68663;49.122;17.544;2023-05-20T13:44:13;20.63;;;18.52;;
79229;SDS011;68663;49.122;17.544;2023-05-20T13:46:38;22.52;;;17.65;;
79229;SDS011;68663;49.122;17.544;2023-05-20T13:49:03;22.30;;;20.02;;
79229;SDS011;68663;49.122;17.544;2023-05-20T13:51:29;23.98;;;18.73;;
79229;SDS011;68663;49.122;17.544;2023-05-20T13:53:55;20.45;;;18.25;;
79229;SDS011;68663;49.122;17.544;2023-05-20T13:56:20;21.48;;;18.60;;
79229;SDS011;68663;49.122;17.544;2023-05-20T13:58:46;22.05;;;18.95;;
79229;SDS011;68663;49.122;17.544;2023-05-20T14:01:12;21.05;;;18.95;;
79229;SDS011;68663;49.122;17.544;2023-05-20T14:03:37;21.48;;;19.23;;
79229;SDS011;68663;49.122;17.544;2023-05-20T14:06:04;21.95;;;18.10;;
79229;SDS011;68663;49.122;17.544;2023-05-20T14:08:30;21.02;;;18.90;;
79229;SDS011;68663;49.122;17.544;2023-05-20T14:10:56;19.60;;;17.70;;
79229;SDS011;68663;49.122;17.544;2023-05-20T14:13:21;21.63;;;18.80;;
79229;SDS011;68663;49.122;17.544;2023-05-20T14:15:47;21.70;;;19.45;;
79229;SDS011;68663;49.122;17.544;2023-05-20T14:18:14;20.13;;;18.13;;
79229;SDS011;68663;49.122;17.544;2023-05-20T14:20:43;20.10;;;18.00;;
79229;SDS011;68663;49.122;17.544;2023-05-20T14:23:09;18.85;;;16.70;;
79229;SDS011;68663;49.122;17.544;2023-05-20T14:25:35;17.25;;;15.48;;
79229;SDS011;68663;49.122;17.544;2023-05-20T14:28:01;19.10;;;17.15;;
79229;SDS011;68663;49.122;17.544;2023-05-20T14:30:26;20.55;;;18.40;;
79229;SDS011;68663;49.122;17.544;2023-05-20T14:32:52;19.50;;;17.40;;